createdAt,value
2023-04-04T00:00:58.099Z,102582.28
2023-04-04T00:03:25.183Z,102583.19
2023-04-04T00:05:52.296Z,102582.66
2023-04-04T00:08:19.245Z,102584.28
2023-04-04T00:11:13.883Z,102586.44
2023-04-04T00:13:44.187Z,102595.03
2023-04-04T00:16:21.691Z,102586.13
2023-04-04T00:18:51.627Z,102586.28
2023-04-04T00:21:18.669Z,102576.19
2023-04-04T00:23:45.662Z,102584.34
2023-04-04T00:26:12.637Z,102573.56
2023-04-04T00:28:42.748Z,102563.28
2023-04-04T00:33:53.602Z,102544.88
2023-04-04T00:36:20.566Z,102544.84
2023-04-04T00:38:58.197Z,102554.41
2023-04-04T00:41:28.278Z,102556.28
2023-04-04T00:44:05.182Z,102551.72
2023-04-04T00:46:33.105Z,102556.19
2023-04-04T00:49:03.036Z,102559.97
2023-04-04T00:51:40.976Z,102561.38
2023-04-04T00:54:07.979Z,102559.88
2023-04-04T00:56:39.685Z,102561.94
2023-04-04T00:59:07.784Z,102573.56
2023-04-04T01:01:36.446Z,102571.50
2023-04-04T01:04:05.765Z,102570.31
2023-04-04T01:06:33.594Z,102578.50
2023-04-04T01:09:01.894Z,102570.66
2023-04-04T01:12:14.263Z,102573.50
2023-04-04T01:14:41.532Z,102575.28
2023-04-04T01:17:18.128Z,102573.78
2023-04-04T01:20:26.342Z,102575.59
2023-04-04T01:22:55.346Z,102579.44
2023-04-04T01:25:35.977Z,102581.91
2023-04-04T01:28:03.149Z,102596.69
2023-04-04T01:30:34.752Z,102576.88
2023-04-04T01:33:18.118Z,102584.47
2023-04-04T01:36:05.691Z,102577.63
2023-04-04T01:39:03.951Z,102592.00
2023-04-04T01:41:39.402Z,102603.38
2023-04-04T01:44:06.664Z,102593.63
2023-04-04T01:46:33.898Z,102604.84
2023-04-04T01:49:09.694Z,102598.59
2023-04-04T01:51:39.153Z,102605.16
2023-04-04T01:54:06.181Z,102604.63
2023-04-04T01:56:33.636Z,102605.75
2023-04-04T01:59:01.536Z,102594.22
2023-04-04T02:01:28.605Z,102608.50
2023-04-04T02:04:04.820Z,102604.09
2023-04-04T02:06:48.256Z,102619.53
2023-04-04T02:09:27.311Z,102610.56
2023-04-04T02:11:54.703Z,102598.72
2023-04-04T02:14:22.020Z,102593.66
2023-04-04T02:16:48.964Z,102586.66
2023-04-04T02:19:21.581Z,102579.94
2023-04-04T02:21:54.478Z,102584.94
2023-04-04T02:24:28.566Z,102588.78
2023-04-04T02:26:55.553Z,102577.44
2023-04-04T02:29:23.422Z,102576.22
2023-04-04T02:31:50.519Z,102576.69
2023-04-04T02:34:17.547Z,102577.31
2023-04-04T02:36:44.842Z,102570.78
2023-04-04T02:39:40.767Z,102568.66
2023-04-04T02:42:07.702Z,102569.69
2023-04-04T02:44:44.660Z,102564.47
2023-04-04T02:47:12.344Z,102562.53
2023-04-04T02:49:39.425Z,102561.34
2023-04-04T02:52:08.263Z,102567.88
2023-04-04T02:54:37.679Z,102578.38
2023-04-04T02:57:08.216Z,102574.44
2023-04-04T02:59:46.494Z,102565.25
2023-04-04T03:02:37.272Z,102561.09
2023-04-04T03:05:04.966Z,102560.22
2023-04-04T03:07:36.233Z,102561.91
2023-04-04T03:10:06.802Z,102555.97
2023-04-04T03:12:33.748Z,102559.31
2023-04-04T03:15:00.645Z,102567.00
2023-04-04T03:17:29.279Z,102561.09
2023-04-04T03:19:56.200Z,102567.22
2023-04-04T03:22:23.252Z,102566.16
2023-04-04T03:24:52.076Z,102563.00
2023-04-04T03:27:19.051Z,102570.06
2023-04-04T03:29:46.079Z,102581.38
2023-04-04T03:32:13.160Z,102583.44
2023-04-04T03:34:40.239Z,102577.38
2023-04-04T03:37:10.251Z,102578.31
2023-04-04T03:39:37.237Z,102579.09
2023-04-04T03:42:04.754Z,102567.91
2023-04-04T03:44:31.704Z,102565.56
2023-04-04T03:47:01.694Z,102579.13
2023-04-04T03:49:28.943Z,102562.53
2023-04-04T03:52:00.033Z,102570.94
2023-04-04T03:54:29.473Z,102568.66
2023-04-04T03:57:03.823Z,102567.28
2023-04-04T03:59:42.247Z,102573.91
2023-04-04T04:02:12.056Z,102589.75
2023-04-04T04:04:47.782Z,102590.91
2023-04-04T04:07:46.877Z,102580.13
2023-04-04T04:10:22.107Z,102576.81
2023-04-04T04:12:52.301Z,102574.19
2023-04-04T04:15:19.493Z,102561.34
2023-04-04T04:17:49.586Z,102573.16
2023-04-04T04:20:28.189Z,102559.22
2023-04-04T04:22:55.349Z,102569.84
2023-04-04T04:25:22.739Z,102577.94
2023-04-04T04:27:49.788Z,102571.16
2023-04-04T04:30:16.971Z,102575.03
2023-04-04T04:32:43.940Z,102576.88
2023-04-04T04:35:11.085Z,102567.69
2023-04-04T04:37:38.434Z,102579.63
2023-04-04T04:40:06.558Z,102572.69
2023-04-04T04:42:33.557Z,102572.66
2023-04-04T04:45:00.617Z,102576.16
2023-04-04T04:47:27.719Z,102579.84
2023-04-04T04:49:54.745Z,102575.56
2023-04-04T04:52:21.757Z,102578.47
2023-04-04T04:54:51.823Z,102581.63
2023-04-04T04:57:18.897Z,102589.69
2023-04-04T04:59:46.019Z,102593.44
2023-04-04T05:02:13.020Z,102590.44
2023-04-04T05:04:41.267Z,102591.16
2023-04-04T05:07:30.647Z,102589.72
2023-04-04T05:09:57.691Z,102595.97
2023-04-04T05:12:24.624Z,102598.97
2023-04-04T05:14:51.558Z,102589.50
2023-04-04T05:17:22.978Z,102601.94
2023-04-04T05:19:50.147Z,102606.63
2023-04-04T05:22:17.077Z,102608.59
2023-04-04T05:24:43.996Z,102604.34
2023-04-04T05:27:11.238Z,102611.97
2023-04-04T05:29:38.188Z,102613.78
2023-04-04T05:32:05.473Z,102613.13
2023-04-04T05:34:35.514Z,102608.53
2023-04-04T05:37:02.447Z,102606.78
2023-04-04T05:39:29.512Z,102609.41
2023-04-04T05:41:56.431Z,102607.53
2023-04-04T05:44:33.271Z,102606.91
2023-04-04T05:47:00.421Z,102612.03
2023-04-04T05:49:28.464Z,102607.72
2023-04-04T05:51:58.286Z,102612.66
2023-04-04T05:54:25.265Z,102614.59
2023-04-04T05:56:52.326Z,102611.72
2023-04-04T05:59:19.261Z,102612.72
2023-04-04T06:01:46.379Z,102611.88
2023-04-04T06:04:15.566Z,102602.31
2023-04-04T06:06:42.666Z,102607.28
2023-04-04T06:09:09.607Z,102614.94
2023-04-04T06:11:46.209Z,102616.53
2023-04-04T06:14:14.725Z,102622.63
2023-04-04T06:16:42.273Z,102620.81
2023-04-04T06:19:09.361Z,102634.81
2023-04-04T06:21:36.668Z,102636.09
2023-04-04T06:24:03.776Z,102646.16
2023-04-04T06:26:30.914Z,102650.31
2023-04-04T06:28:57.836Z,102631.06
2023-04-04T06:31:24.890Z,102633.69
2023-04-04T06:33:51.882Z,102640.59
2023-04-04T06:36:18.804Z,102634.94
2023-04-04T06:38:45.782Z,102640.94
2023-04-04T06:41:12.836Z,102637.13
2023-04-04T06:43:39.879Z,102637.66
2023-04-04T06:46:07.128Z,102635.47
2023-04-04T06:48:34.185Z,102641.53
2023-04-04T06:51:01.382Z,102642.63
2023-04-04T06:53:28.460Z,102644.16
2023-04-04T06:55:55.582Z,102639.72
2023-04-04T06:58:22.540Z,102649.91
2023-04-04T07:00:49.653Z,102637.41
2023-04-04T07:03:33.030Z,102643.59
2023-04-04T07:06:04.405Z,102633.28
2023-04-04T07:08:36.957Z,102645.38
2023-04-04T07:11:06.304Z,102661.34
2023-04-04T07:13:39.869Z,102656.28
2023-04-04T07:16:07.187Z,102657.97
2023-04-04T07:18:34.201Z,102658.41
2023-04-04T07:21:01.157Z,102666.81
2023-04-04T07:23:28.243Z,102665.63
2023-04-04T07:25:55.263Z,102667.25
2023-04-04T07:28:22.761Z,102647.56
2023-04-04T07:30:49.727Z,102650.91
2023-04-04T07:33:16.757Z,102642.88
2023-04-04T07:35:43.734Z,102629.47
2023-04-04T07:38:26.737Z,102636.78
2023-04-04T07:40:56.988Z,102619.56
2023-04-04T07:43:24.076Z,102622.53
2023-04-04T07:46:02.158Z,102619.31
2023-04-04T07:48:29.234Z,102613.88
2023-04-04T07:50:56.483Z,102621.00
2023-04-04T07:53:23.552Z,102625.19
2023-04-04T07:55:50.640Z,102624.66
2023-04-04T07:58:17.695Z,102626.31
2023-04-04T08:00:44.668Z,102627.69
2023-04-04T08:03:12.405Z,102622.94
2023-04-04T08:05:40.382Z,102619.53
2023-04-04T08:08:07.453Z,102599.28
2023-04-04T08:10:34.408Z,102599.06
2023-04-04T08:13:01.481Z,102609.31
2023-04-04T08:15:28.870Z,102613.22
2023-04-04T08:17:56.855Z,102605.84
2023-04-04T08:20:24.069Z,102605.72
2023-04-04T08:22:51.063Z,102619.47
2023-04-04T08:25:18.554Z,102614.56
2023-04-04T08:27:45.857Z,102617.59
2023-04-04T08:30:17.118Z,102626.56
2023-04-04T08:32:46.019Z,102633.25
2023-04-04T08:35:13.329Z,102627.31
2023-04-04T08:37:47.050Z,102627.56
2023-04-04T08:40:14.847Z,102634.00
2023-04-04T08:42:46.190Z,102633.47
2023-04-04T08:45:17.920Z,102634.81
2023-04-04T08:47:46.627Z,102629.72
2023-04-04T08:50:13.753Z,102634.88
2023-04-04T08:52:41.779Z,102637.50
2023-04-04T08:55:10.057Z,102635.59
2023-04-04T08:57:37.905Z,102641.03
2023-04-04T09:00:07.294Z,102641.69
2023-04-04T09:02:53.457Z,102643.63
2023-04-04T09:05:25.652Z,102638.97
2023-04-04T09:07:56.973Z,102633.19
2023-04-04T09:10:27.958Z,102639.69
2023-04-04T09:13:05.202Z,102638.09
2023-04-04T09:15:47.849Z,102635.75
2023-04-04T09:18:15.618Z,102624.59
2023-04-04T09:20:47.134Z,102623.88
2023-04-04T09:23:21.572Z,102620.06
2023-04-04T09:26:03.941Z,102622.72
2023-04-04T09:28:33.425Z,102621.06
2023-04-04T09:31:04.729Z,102618.16
2023-04-04T09:33:35.814Z,102614.41
2023-04-04T09:36:10.111Z,102611.81
2023-04-04T09:38:45.705Z,102613.69
2023-04-04T09:41:16.470Z,102609.50
2023-04-04T09:43:45.778Z,102610.63
2023-04-04T09:46:12.870Z,102603.25
2023-04-04T09:48:40.348Z,102599.06
2023-04-04T09:51:12.361Z,102603.44
2023-04-04T09:53:42.126Z,102599.59
2023-04-04T09:56:09.520Z,102598.25
2023-04-04T09:58:44.297Z,102599.41
2023-04-04T10:01:18.458Z,102599.06
2023-04-04T10:03:54.193Z,102605.84
2023-04-04T10:06:22.553Z,102601.56
2023-04-04T10:08:50.405Z,102606.28
2023-04-04T10:11:36.000Z,102608.94
2023-04-04T10:14:06.853Z,102607.00
2023-04-04T10:16:38.204Z,102616.03
2023-04-04T10:19:08.898Z,102604.25
2023-04-04T10:21:36.703Z,102611.34
2023-04-04T10:24:09.401Z,102607.59
2023-04-04T10:26:37.086Z,102601.50
2023-04-04T10:29:06.000Z,102614.31
2023-04-04T10:31:40.930Z,102597.72
2023-04-04T10:34:21.036Z,102608.16
2023-04-04T10:36:54.996Z,102598.84
2023-04-04T10:39:37.815Z,102597.03
2023-04-04T10:42:07.829Z,102585.97
2023-04-04T10:44:39.887Z,102595.06
2023-04-04T10:47:23.530Z,102585.88
2023-04-04T10:49:51.755Z,102583.28
2023-04-04T10:52:24.716Z,102578.28
2023-04-04T10:54:55.120Z,102581.53
2023-04-04T10:57:23.825Z,102569.16
2023-04-04T11:00:18.002Z,102588.94
2023-04-04T11:03:00.399Z,102569.13
2023-04-04T11:05:37.602Z,102574.25
2023-04-04T11:08:09.060Z,102568.69
2023-04-04T11:10:42.508Z,102567.59
2023-04-04T11:13:16.371Z,102569.28
2023-04-04T11:16:07.623Z,102564.22
2023-04-04T11:18:43.856Z,102573.53
2023-04-04T11:21:20.472Z,102572.69
2023-04-04T11:24:14.745Z,102564.84
2023-04-04T11:26:46.151Z,102561.16
2023-04-04T11:29:22.675Z,102553.75
2023-04-04T11:31:50.974Z,102542.81
2023-04-04T11:34:32.603Z,102546.00
2023-04-04T11:37:03.283Z,102551.78
2023-04-04T11:39:31.713Z,102532.97
2023-04-04T11:42:14.143Z,102539.50
2023-04-04T11:44:51.302Z,102540.59
2023-04-04T11:47:24.091Z,102536.94
2023-04-04T11:49:53.765Z,102531.22
2023-04-04T11:52:23.741Z,102514.47
2023-04-04T11:54:50.862Z,102511.34
2023-04-04T11:57:19.777Z,102526.84
2023-04-04T11:59:50.571Z,102525.28
2023-04-04T12:02:23.735Z,102518.19
2023-04-04T12:04:52.251Z,102510.19
2023-04-04T12:07:19.734Z,102522.97
2023-04-04T12:09:48.077Z,102508.56
2023-04-04T12:12:19.826Z,102497.72
2023-04-04T12:17:20.527Z,102497.25
2023-04-04T12:19:47.671Z,102485.44
2023-04-04T12:22:15.015Z,102496.22
2023-04-04T12:24:42.151Z,102492.50
2023-04-04T12:27:09.214Z,102496.31
2023-04-04T12:29:37.635Z,102486.16
2023-04-04T12:32:06.385Z,102481.81
2023-04-04T12:34:36.318Z,102489.88
2023-04-04T12:37:04.171Z,102486.13
2023-04-04T12:39:31.990Z,102498.13
2023-04-04T12:42:04.004Z,102488.09
2023-04-04T12:44:41.979Z,102487.69
2023-04-04T12:47:16.088Z,102469.56
2023-04-04T12:49:48.728Z,102473.53
2023-04-04T12:52:21.763Z,102462.22
2023-04-04T12:55:04.815Z,102453.38
2023-04-04T12:57:36.115Z,102448.66
2023-04-04T13:00:06.325Z,102445.06
2023-04-04T13:02:36.516Z,102438.91
2023-04-04T13:05:04.340Z,102448.25
2023-04-04T13:07:43.096Z,102445.38
2023-04-04T13:10:15.994Z,102436.91
2023-04-04T13:12:58.826Z,102436.50
2023-04-04T13:15:51.078Z,102433.31
2023-04-04T13:18:24.783Z,102421.72
2023-04-04T13:20:53.933Z,102417.09
2023-04-04T13:23:21.864Z,102425.13
2023-04-04T13:25:49.049Z,102414.31
2023-04-04T13:28:16.460Z,102414.13
2023-04-04T13:30:48.715Z,102403.91
2023-04-04T13:33:17.301Z,102410.75
2023-04-04T13:35:45.514Z,102415.78
2023-04-04T13:38:12.973Z,102403.50
2023-04-04T13:40:40.070Z,102402.72
2023-04-04T13:43:09.053Z,102398.47
2023-04-04T13:45:36.318Z,102401.13
2023-04-04T13:48:04.321Z,102408.81
2023-04-04T13:50:33.002Z,102404.28
2023-04-04T13:53:00.572Z,102404.88
2023-04-04T13:55:28.206Z,102407.28
2023-04-04T13:57:55.237Z,102375.44
2023-04-04T14:00:25.097Z,102390.47
2023-04-04T14:02:54.174Z,102391.28
2023-04-04T14:05:22.921Z,102394.03
2023-04-04T14:07:50.308Z,102382.47
2023-04-04T14:10:17.324Z,102375.00
2023-04-04T14:12:44.330Z,102372.44
2023-04-04T14:15:12.325Z,102367.06
2023-04-04T14:17:39.543Z,102360.72
2023-04-04T14:20:07.956Z,102362.16
2023-04-04T14:22:35.477Z,102373.66
2023-04-04T14:25:03.076Z,102362.13
2023-04-04T14:27:29.993Z,102355.94
2023-04-04T14:29:56.937Z,102354.41
2023-04-04T14:32:24.867Z,102362.81
2023-04-04T14:34:52.119Z,102349.59
2023-04-04T14:37:19.085Z,102352.66
2023-04-04T14:39:46.021Z,102347.78
2023-04-04T14:42:12.934Z,102344.63
2023-04-04T14:44:42.050Z,102362.16
2023-04-04T14:47:09.657Z,102349.91
2023-04-04T14:49:36.806Z,102337.97
2023-04-04T14:52:04.276Z,102340.94
2023-04-04T14:54:31.263Z,102338.59
2023-04-04T14:56:59.385Z,102334.78
2023-04-04T14:59:26.365Z,102346.75
2023-04-04T15:01:53.310Z,102330.44
2023-04-04T15:04:20.379Z,102327.78
2023-04-04T15:06:47.313Z,102325.25
2023-04-04T15:09:14.915Z,102328.38
2023-04-04T15:11:42.324Z,102317.53
2023-04-04T15:14:09.429Z,102307.38
2023-04-04T15:16:36.597Z,102302.66
2023-04-04T15:19:03.646Z,102304.03
2023-04-04T15:21:31.727Z,102299.81
2023-04-04T15:23:58.792Z,102294.69
2023-04-04T15:26:26.070Z,102295.00
2023-04-04T15:28:53.099Z,102288.91
2023-04-04T15:31:21.032Z,102292.03
2023-04-04T15:33:48.441Z,102294.84
2023-04-04T15:36:15.507Z,102287.44
2023-04-04T15:38:42.479Z,102290.63
2023-04-04T15:41:10.372Z,102293.69
2023-04-04T15:43:37.731Z,102294.72
2023-04-04T15:46:05.486Z,102286.28
2023-04-04T15:48:34.277Z,102278.66
2023-04-04T15:51:04.898Z,102275.94
2023-04-04T15:53:33.286Z,102270.06
2023-04-04T15:56:01.981Z,102267.16
2023-04-04T15:58:28.962Z,102266.09
2023-04-04T16:00:56.065Z,102273.94
2023-04-04T16:03:24.613Z,102270.53
2023-04-04T16:05:51.733Z,102290.22
2023-04-04T16:08:18.664Z,102267.03
2023-04-04T16:10:45.577Z,102271.75
2023-04-04T16:13:14.115Z,102257.03
2023-04-04T16:15:41.275Z,102264.66
2023-04-04T16:18:08.781Z,102276.53
2023-04-04T16:20:36.269Z,102270.19
2023-04-04T16:23:03.282Z,102263.38
2023-04-04T16:25:30.244Z,102266.63
2023-04-04T16:27:57.304Z,102260.09
2023-04-04T16:30:24.274Z,102254.41
2023-04-04T16:32:52.141Z,102259.16
2023-04-04T16:35:19.152Z,102250.50
2023-04-04T16:37:46.065Z,102257.72
2023-04-04T16:40:14.870Z,102251.81
2023-04-04T16:42:42.475Z,102248.84
2023-04-04T16:45:10.498Z,102251.63
2023-04-04T16:47:37.596Z,102244.31
2023-04-04T16:50:07.085Z,102260.66
2023-04-04T16:52:34.075Z,102249.22
2023-04-04T16:55:01.067Z,102255.63
2023-04-04T16:57:28.062Z,102249.44
2023-04-04T16:59:55.061Z,102245.25
2023-04-04T17:02:22.081Z,102253.81
2023-04-04T17:04:49.186Z,102252.72
2023-04-04T17:07:16.325Z,102242.13
2023-04-04T17:09:43.374Z,102240.22
2023-04-04T17:12:10.318Z,102248.38
2023-04-04T17:14:37.599Z,102245.88
2023-04-04T17:17:05.566Z,102240.53
2023-04-04T17:19:34.846Z,102244.19
2023-04-04T17:22:02.288Z,102241.28
2023-04-04T17:24:29.241Z,102244.50
2023-04-04T17:26:58.246Z,102240.50
2023-04-04T17:29:27.350Z,102237.03
2023-04-04T17:31:58.299Z,102240.63
2023-04-04T17:34:26.297Z,102236.84
2023-04-04T17:36:53.857Z,102241.38
2023-04-04T17:39:21.486Z,102223.47
2023-04-04T17:41:48.775Z,102226.13
2023-04-04T17:44:17.308Z,102237.63
2023-04-04T17:46:45.165Z,102231.94
2023-04-04T17:49:12.778Z,102231.34
2023-04-04T17:51:39.695Z,102219.09
2023-04-04T17:54:06.855Z,102229.88
2023-04-04T17:56:33.794Z,102224.19
2023-04-04T17:59:00.885Z,102225.97
2023-04-04T18:01:29.469Z,102214.72
2023-04-04T18:03:57.644Z,102215.66
2023-04-04T18:06:24.747Z,102226.53
2023-04-04T18:08:51.819Z,102225.50
2023-04-04T18:11:19.154Z,102224.34
2023-04-04T18:13:46.261Z,102236.78
2023-04-04T18:16:13.361Z,102232.28
2023-04-04T18:18:40.690Z,102246.63
2023-04-04T18:21:08.462Z,102234.97
2023-04-04T18:23:35.782Z,102247.31
2023-04-04T18:26:03.322Z,102239.38
2023-04-04T18:28:30.537Z,102236.00
2023-04-04T18:30:59.472Z,102242.50
2023-04-04T18:33:27.233Z,102243.00
2023-04-04T18:35:54.853Z,102245.66
2023-04-04T18:38:21.938Z,102245.84
2023-04-04T18:40:48.912Z,102245.72
2023-04-04T18:43:15.997Z,102257.31
2023-04-04T18:45:43.248Z,102259.25
2023-04-04T18:48:12.515Z,102256.72
2023-04-04T18:50:40.993Z,102262.22
2023-04-04T18:53:08.555Z,102265.44
2023-04-04T18:55:36.325Z,102263.75
2023-04-04T18:58:03.254Z,102269.38
2023-04-04T19:00:31.230Z,102278.81
2023-04-04T19:02:58.311Z,102271.94
2023-04-04T19:05:25.714Z,102272.72
2023-04-04T19:07:54.520Z,102279.81
2023-04-04T19:10:22.196Z,102284.13
2023-04-04T19:12:49.188Z,102262.19
2023-04-04T19:15:16.389Z,102270.78
2023-04-04T19:17:43.409Z,102275.50
2023-04-04T19:20:12.429Z,102282.47
2023-04-04T19:22:39.452Z,102273.66
2023-04-04T19:25:06.629Z,102272.78
2023-04-04T19:27:33.614Z,102287.59
2023-04-04T19:30:00.693Z,102288.09
2023-04-04T19:32:28.498Z,102282.97
2023-04-04T19:34:56.438Z,102292.59
2023-04-04T19:37:24.487Z,102288.78
2023-04-04T19:39:51.506Z,102301.69
2023-04-04T19:42:27.090Z,102298.50
2023-04-04T19:44:54.033Z,102296.91
2023-04-04T19:47:21.764Z,102288.97
2023-04-04T19:49:52.867Z,102289.66
2023-04-04T19:52:24.137Z,102291.31
2023-04-04T19:54:51.066Z,102287.34
2023-04-04T19:57:33.483Z,102289.06
2023-04-04T20:00:22.515Z,102290.63
2023-04-04T20:03:00.005Z,102298.97
2023-04-04T20:05:32.127Z,102296.31
2023-04-04T20:08:00.951Z,102308.50
2023-04-04T20:10:40.604Z,102301.69
2023-04-04T20:13:08.610Z,102302.91
2023-04-04T20:16:06.640Z,102300.03
2023-04-04T20:18:35.587Z,102301.63
2023-04-04T20:21:23.553Z,102303.09
2023-04-04T20:23:53.328Z,102302.59
2023-04-04T20:26:59.668Z,102286.94
2023-04-04T20:29:32.351Z,102299.94
2023-04-04T20:32:08.768Z,102282.00
2023-04-04T20:34:46.703Z,102296.31
2023-04-04T20:37:23.488Z,102292.78
2023-04-04T20:39:58.801Z,102297.00
2023-04-04T20:42:36.863Z,102295.50
2023-04-04T20:45:09.689Z,102295.00
2023-04-04T20:47:55.049Z,102286.66
2023-04-04T20:50:35.424Z,102288.50
2023-04-04T20:53:13.337Z,102281.56
2023-04-04T20:58:09.478Z,102289.97
2023-04-04T21:00:42.569Z,102279.47
2023-04-04T21:03:34.760Z,102299.09
2023-04-04T21:06:10.852Z,102291.34
2023-04-04T21:08:49.568Z,102299.63
2023-04-04T21:11:38.214Z,102298.09
2023-04-04T21:14:28.251Z,102289.19
2023-04-04T21:16:55.158Z,102279.25
2023-04-04T21:19:23.522Z,102290.03
2023-04-04T21:21:54.580Z,102278.00
2023-04-04T21:24:21.544Z,102280.03
2023-04-04T21:26:50.239Z,102278.09
2023-04-04T21:29:24.434Z,102282.56
2023-04-04T21:31:56.704Z,102280.03
2023-04-04T21:34:36.317Z,102280.31
2023-04-04T21:37:16.204Z,102285.47
2023-04-04T21:39:45.087Z,102291.56
2023-04-04T21:42:12.162Z,102286.59
2023-04-04T21:44:39.225Z,102282.88
2023-04-04T21:47:06.601Z,102288.72
2023-04-04T21:49:33.565Z,102269.84
2023-04-04T21:52:00.490Z,102274.00
2023-04-04T21:54:27.431Z,102280.13
2023-04-04T21:56:54.329Z,102280.78
2023-04-04T21:59:21.673Z,102278.13
2023-04-04T22:01:50.331Z,102280.13
2023-04-04T22:04:17.285Z,102279.22
2023-04-04T22:06:44.258Z,102281.25
2023-04-04T22:09:11.827Z,102274.75
2023-04-04T22:11:44.426Z,102268.44
2023-04-04T22:14:17.296Z,102266.25
2023-04-04T22:16:44.587Z,102261.25
2023-04-04T22:19:12.007Z,102267.84
2023-04-04T22:21:39.380Z,102279.19
2023-04-04T22:24:10.085Z,102271.81
2023-04-04T22:26:41.759Z,102274.31
2023-04-04T22:29:08.692Z,102272.19
2023-04-04T22:31:37.567Z,102264.22
2023-04-04T22:34:06.247Z,102264.31
2023-04-04T22:36:34.336Z,102261.41
2023-04-04T22:39:04.048Z,102255.31
2023-04-04T22:41:31.991Z,102262.19
2023-04-04T22:44:07.183Z,102255.22
2023-04-04T22:46:40.049Z,102245.09
2023-04-04T22:49:08.859Z,102256.94
2023-04-04T22:51:46.283Z,102258.19
2023-04-04T22:54:17.031Z,102249.00
2023-04-04T22:56:47.466Z,102246.25
2023-04-04T22:59:17.351Z,102250.28
2023-04-04T23:01:47.979Z,102257.34
2023-04-04T23:04:15.013Z,102260.75
2023-04-04T23:06:48.280Z,102259.66
2023-04-04T23:09:18.242Z,102260.13
2023-04-04T23:11:48.241Z,102258.56
2023-04-04T23:14:19.510Z,102258.13
2023-04-04T23:16:53.743Z,102263.19
2023-04-04T23:19:23.220Z,102256.13
2023-04-04T23:21:52.666Z,102254.56
2023-04-04T23:24:19.547Z,102254.28
2023-04-04T23:26:53.244Z,102257.09
2023-04-04T23:29:23.921Z,102251.84
2023-04-04T23:31:51.010Z,102248.06
2023-04-04T23:34:18.210Z,102253.53
2023-04-04T23:36:45.286Z,102246.59
2023-04-04T23:39:12.339Z,102254.22
2023-04-04T23:41:39.326Z,102249.66
2023-04-04T23:44:06.290Z,102252.03
2023-04-04T23:46:34.861Z,102244.91
2023-04-04T23:49:02.062Z,102246.25
2023-04-04T23:51:38.301Z,102254.84
2023-04-04T23:54:10.433Z,102241.28
2023-04-04T23:56:37.896Z,102237.34
2023-04-04T23:59:06.020Z,102240.72
